To NAV CANADA Home Page Login to a new session Search on AWWS site Feedback and Comments Disclaimer Vers la page française équivalente Tips FAQ What's new on the site To the Forecasts and Observations / NOTAM section To "File a Flight Plan" website Publications and other links Update of the User's profile FIC Telephone Numbers My Weather Data Folder Route Weather Data Regional Weather Data Local Weather Data To the Forecasts and Observations / NOTAM section
Request Generated 05/25/2015 at 11:06:09 UTC . Weather information available at that time is displayed.

METAR/TAF

SLAVE LAKE/AB    (show WxCam)

METAR CYZH 251100Z AUTO 00000KT 1SM HZ CLR 09/05 A2985 RMK SLP114=
SPECI CYZH 251016Z AUTO VRB02KT 1 1/4SM HZ OVC130 10/05 A2985 RMK
SLP114=
METAR CYZH 251000Z AUTO VRB02KT 1 1/2SM HZ OVC120 10/06 A2985 RMK
SLP114=
SPECI CYZH 250952Z AUTO 30003KT 1 1/2SM HZ OVC120 10/06 A2985 RMK
SLP113=

TAF CYZH 250639Z 2507/2519 VRB03KT P6SM SCT140 TEMPO 2507/2516 5SM FU
RMK FCST BASED ON AUTO OBS AUTO OBS REP NON-REPRESENTATIVE VIS.
NXT FCST BY 251300Z=
Your time UTC time
Weather data provided by Environment Canada and NAV CANADA